sensor_id;sensor_type;location;lat;lon;timestamp;pressure;altitude;pressure_sealevel;temperature;humidity
55685;BME280;41883;49.544;8.646;2023-06-14T00:01:56;99907.31;;;19.50;nan
55685;BME280;41883;49.544;8.646;2023-06-14T00:04:22;99904.03;;;19.48;nan
55685;BME280;41883;49.544;8.646;2023-06-14T00:06:50;99902.84;;;19.44;nan
55685;BME280;41883;49.544;8.646;2023-06-14T00:09:15;99895.84;;;19.43;nan
55685;BME280;41883;49.544;8.646;2023-06-14T00:11:42;99907.66;;;19.53;nan
55685;BME280;41883;49.544;8.646;2023-06-14T00:14:08;99888.91;;;19.53;nan
55685;BME280;41883;49.544;8.646;2023-06-14T00:16:33;99897.31;;;19.57;nan
55685;BME280;41883;49.544;8.646;2023-06-14T00:19:00;99889.94;;;19.52;nan
55685;BME280;41883;49.544;8.646;2023-06-14T00:21:25;99887.50;;;19.51;nan
55685;BME280;41883;49.544;8.646;2023-06-14T00:23:54;99891.34;;;19.55;nan
55685;BME280;41883;49.544;8.646;2023-06-14T00:26:20;99893.59;;;19.58;nan
55685;BME280;41883;49.544;8.646;2023-06-14T00:28:45;99889.03;;;19.59;nan
55685;BME280;41883;49.544;8.646;2023-06-14T00:31:10;99881.66;;;19.54;nan
55685;BME280;41883;49.544;8.646;2023-06-14T00:33:35;99887.41;;;19.58;nan
55685;BME280;41883;49.544;8.646;2023-06-14T00:36:01;99886.00;;;19.55;nan
55685;BME280;41883;49.544;8.646;2023-06-14T00:38:26;99890.22;;;19.63;nan
55685;BME280;41883;49.544;8.646;2023-06-14T00:40:51;99890.97;;;19.70;nan
55685;BME280;41883;49.544;8.646;2023-06-14T00:43:16;99888.81;;;19.79;nan
55685;BME280;41883;49.544;8.646;2023-06-14T00:45:41;99887.53;;;19.81;nan
55685;BME280;41883;49.544;8.646;2023-06-14T00:48:06;99874.06;;;19.69;nan
55685;BME280;41883;49.544;8.646;2023-06-14T00:50:33;99882.72;;;19.71;nan
55685;BME280;41883;49.544;8.646;2023-06-14T00:53:01;99888.13;;;19.65;nan
55685;BME280;41883;49.544;8.646;2023-06-14T00:55:28;99887.03;;;19.54;nan
55685;BME280;41883;49.544;8.646;2023-06-14T00:57:56;99883.75;;;19.52;nan
55685;BME280;41883;49.544;8.646;2023-06-14T01:05:11;99888.69;;;19.37;nan
55685;BME280;41883;49.544;8.646;2023-06-14T01:07:51;99891.91;;;19.27;nan
55685;BME280;41883;49.544;8.646;2023-06-14T01:13:26;99893.09;;;19.31;nan
55685;BME280;41883;49.544;8.646;2023-06-14T01:15:52;99885.75;;;19.26;nan
55685;BME280;41883;49.544;8.646;2023-06-14T01:18:19;99876.50;;;19.22;nan
55685;BME280;41883;49.544;8.646;2023-06-14T01:20:45;99892.78;;;19.21;nan
55685;BME280;41883;49.544;8.646;2023-06-14T01:23:14;99900.16;;;19.25;nan
55685;BME280;41883;49.544;8.646;2023-06-14T01:28:08;99883.34;;;19.18;nan
55685;BME280;41883;49.544;8.646;2023-06-14T01:30:38;99885.81;;;19.20;nan
55685;BME280;41883;49.544;8.646;2023-06-14T01:35:28;99888.69;;;19.18;nan
55685;BME280;41883;49.544;8.646;2023-06-14T01:37:53;99883.00;;;19.15;nan
55685;BME280;41883;49.544;8.646;2023-06-14T01:40:19;99883.88;;;19.08;nan
55685;BME280;41883;49.544;8.646;2023-06-14T01:42:46;99885.94;;;19.06;nan
55685;BME280;41883;49.544;8.646;2023-06-14T01:45:12;99893.16;;;19.06;nan
55685;BME280;41883;49.544;8.646;2023-06-14T01:47:38;99883.94;;;19.02;nan
55685;BME280;41883;49.544;8.646;2023-06-14T01:50:03;99896.31;;;19.03;nan
55685;BME280;41883;49.544;8.646;2023-06-14T01:52:29;99889.28;;;19.02;nan
55685;BME280;41883;49.544;8.646;2023-06-14T01:54:54;99903.28;;;19.04;nan
55685;BME280;41883;49.544;8.646;2023-06-14T01:57:19;99892.56;;;19.04;nan
55685;BME280;41883;49.544;8.646;2023-06-14T01:59:45;99897.25;;;19.08;nan
55685;BME280;41883;49.544;8.646;2023-06-14T02:02:14;99891.63;;;18.98;nan
55685;BME280;41883;49.544;8.646;2023-06-14T02:04:40;99891.47;;;18.93;nan
55685;BME280;41883;49.544;8.646;2023-06-14T02:07:05;99900.63;;;18.85;nan
55685;BME280;41883;49.544;8.646;2023-06-14T02:09:34;99910.97;;;18.75;nan
55685;BME280;41883;49.544;8.646;2023-06-14T02:12:00;99905.66;;;18.68;nan
55685;BME280;41883;49.544;8.646;2023-06-14T02:14:25;99886.75;;;18.63;nan
55685;BME280;41883;49.544;8.646;2023-06-14T02:16:51;99900.44;;;18.55;nan
55685;BME280;41883;49.544;8.646;2023-06-14T02:19:16;99903.72;;;18.57;nan
55685;BME280;41883;49.544;8.646;2023-06-14T02:21:42;99900.50;;;18.49;nan
55685;BME280;41883;49.544;8.646;2023-06-14T02:24:07;99892.75;;;18.40;nan
55685;BME280;41883;49.544;8.646;2023-06-14T02:26:32;99887.44;;;18.34;nan
55685;BME280;41883;49.544;8.646;2023-06-14T02:28:58;99896.72;;;18.31;nan
55685;BME280;41883;49.544;8.646;2023-06-14T02:31:23;99900.25;;;18.25;nan
55685;BME280;41883;49.544;8.646;2023-06-14T02:33:48;99891.25;;;18.19;nan
55685;BME280;41883;49.544;8.646;2023-06-14T02:36:13;99891.03;;;18.21;nan
55685;BME280;41883;49.544;8.646;2023-06-14T02:38:38;99897.88;;;18.17;nan
55685;BME280;41883;49.544;8.646;2023-06-14T02:41:03;99894.59;;;18.15;nan
55685;BME280;41883;49.544;8.646;2023-06-14T02:43:36;99883.13;;;18.08;nan
55685;BME280;41883;49.544;8.646;2023-06-14T02:46:02;99890.97;;;18.02;nan
55685;BME280;41883;49.544;8.646;2023-06-14T02:48:28;99886.03;;;17.99;nan
55685;BME280;41883;49.544;8.646;2023-06-14T02:50:53;99886.50;;;17.90;nan
55685;BME280;41883;49.544;8.646;2023-06-14T02:53:18;99891.47;;;17.86;nan
55685;BME280;41883;49.544;8.646;2023-06-14T02:55:43;99886.94;;;17.80;nan
55685;BME280;41883;49.544;8.646;2023-06-14T02:58:09;99886.13;;;17.79;nan
55685;BME280;41883;49.544;8.646;2023-06-14T03:00:34;99893.34;;;17.79;nan
55685;BME280;41883;49.544;8.646;2023-06-14T03:03:01;99883.50;;;17.73;nan
55685;BME280;41883;49.544;8.646;2023-06-14T03:05:26;99885.78;;;17.69;nan
55685;BME280;41883;49.544;8.646;2023-06-14T03:07:53;99876.34;;;17.67;nan
55685;BME280;41883;49.544;8.646;2023-06-14T03:12:44;99898.59;;;17.54;nan
55685;BME280;41883;49.544;8.646;2023-06-14T03:15:10;99892.91;;;17.44;nan
55685;BME280;41883;49.544;8.646;2023-06-14T03:17:35;99904.03;;;17.34;nan
55685;BME280;41883;49.544;8.646;2023-06-14T03:20:03;99903.25;;;17.27;nan
55685;BME280;41883;49.544;8.646;2023-06-14T03:22:31;99907.34;;;17.23;nan
55685;BME280;41883;49.544;8.646;2023-06-14T03:24:59;99910.66;;;17.18;nan
55685;BME280;41883;49.544;8.646;2023-06-14T03:27:24;99911.28;;;17.20;nan
55685;BME280;41883;49.544;8.646;2023-06-14T03:29:49;99905.31;;;17.18;nan
55685;BME280;41883;49.544;8.646;2023-06-14T03:32:14;99909.66;;;17.12;nan
55685;BME280;41883;49.544;8.646;2023-06-14T03:34:40;99913.56;;;17.10;nan
55685;BME280;41883;49.544;8.646;2023-06-14T03:37:06;99914.81;;;17.07;nan
55685;BME280;41883;49.544;8.646;2023-06-14T03:39:31;99900.44;;;17.02;nan
55685;BME280;41883;49.544;8.646;2023-06-14T03:41:56;99923.47;;;16.96;nan
55685;BME280;41883;49.544;8.646;2023-06-14T03:44:21;99927.97;;;16.95;nan
55685;BME280;41883;49.544;8.646;2023-06-14T03:46:46;99916.25;;;16.96;nan
55685;BME280;41883;49.544;8.646;2023-06-14T03:49:12;99943.19;;;16.95;nan
55685;BME280;41883;49.544;8.646;2023-06-14T03:51:37;99927.97;;;17.02;nan
55685;BME280;41883;49.544;8.646;2023-06-14T03:54:02;99936.63;;;17.04;nan
55685;BME280;41883;49.544;8.646;2023-06-14T03:56:27;99935.16;;;17.02;nan
55685;BME280;41883;49.544;8.646;2023-06-14T03:58:53;99934.94;;;16.96;nan
55685;BME280;41883;49.544;8.646;2023-06-14T04:01:18;99946.06;;;16.93;nan
55685;BME280;41883;49.544;8.646;2023-06-14T04:03:43;99944.44;;;16.92;nan
55685;BME280;41883;49.544;8.646;2023-06-14T04:06:08;99951.22;;;16.95;nan
55685;BME280;41883;49.544;8.646;2023-06-14T04:08:34;99947.69;;;16.94;nan
55685;BME280;41883;49.544;8.646;2023-06-14T04:11:00;99956.31;;;16.90;nan
55685;BME280;41883;49.544;8.646;2023-06-14T04:13:25;99948.97;;;16.85;nan
55685;BME280;41883;49.544;8.646;2023-06-14T04:15:50;99950.97;;;16.76;nan
55685;BME280;41883;49.544;8.646;2023-06-14T04:18:16;99956.75;;;16.73;nan
55685;BME280;41883;49.544;8.646;2023-06-14T04:20:41;99964.13;;;16.71;nan
55685;BME280;41883;49.544;8.646;2023-06-14T04:23:13;99968.22;;;16.74;nan
55685;BME280;41883;49.544;8.646;2023-06-14T04:25:39;99955.50;;;16.76;nan
55685;BME280;41883;49.544;8.646;2023-06-14T04:28:05;99968.28;;;16.81;nan
55685;BME280;41883;49.544;8.646;2023-06-14T04:30:30;99973.19;;;16.84;nan
55685;BME280;41883;49.544;8.646;2023-06-14T04:32:56;99983.88;;;16.90;nan
55685;BME280;41883;49.544;8.646;2023-06-14T04:35:21;99967.00;;;17.03;nan
55685;BME280;41883;49.544;8.646;2023-06-14T04:37:48;99974.59;;;17.06;nan
55685;BME280;41883;49.544;8.646;2023-06-14T04:40:13;99973.34;;;17.15;nan
55685;BME280;41883;49.544;8.646;2023-06-14T04:42:39;99981.78;;;17.26;nan
55685;BME280;41883;49.544;8.646;2023-06-14T04:45:05;99976.44;;;17.26;nan
55685;BME280;41883;49.544;8.646;2023-06-14T04:47:31;99996.56;;;17.28;nan
55685;BME280;41883;49.544;8.646;2023-06-14T04:49:57;99981.97;;;17.31;nan
55685;BME280;41883;49.544;8.646;2023-06-14T04:52:22;100001.50;;;17.31;nan
55685;BME280;41883;49.544;8.646;2023-06-14T04:54:48;99987.88;;;17.39;nan
55685;BME280;41883;49.544;8.646;2023-06-14T04:57:13;99999.38;;;17.47;nan
55685;BME280;41883;49.544;8.646;2023-06-14T05:02:09;100000.00;;;17.55;nan
55685;BME280;41883;49.544;8.646;2023-06-14T05:04:34;100006.31;;;17.68;nan
55685;BME280;41883;49.544;8.646;2023-06-14T05:06:59;100007.53;;;17.72;nan
55685;BME280;41883;49.544;8.646;2023-06-14T05:09:26;100017.00;;;17.81;nan
55685;BME280;41883;49.544;8.646;2023-06-14T05:11:51;100012.84;;;17.92;nan
55685;BME280;41883;49.544;8.646;2023-06-14T05:14:16;100006.66;;;17.98;nan
55685;BME280;41883;49.544;8.646;2023-06-14T05:16:42;100009.47;;;18.10;nan
55685;BME280;41883;49.544;8.646;2023-06-14T05:19:07;99990.91;;;18.15;nan
55685;BME280;41883;49.544;8.646;2023-06-14T05:21:33;100009.38;;;18.23;nan
55685;BME280;41883;49.544;8.646;2023-06-14T05:23:59;100017.59;;;18.28;nan
55685;BME280;41883;49.544;8.646;2023-06-14T05:31:18;100021.72;;;18.62;nan
55685;BME280;41883;49.544;8.646;2023-06-14T05:33:43;100019.00;;;18.69;nan
55685;BME280;41883;49.544;8.646;2023-06-14T05:36:09;100013.19;;;18.72;nan
55685;BME280;41883;49.544;8.646;2023-06-14T05:38:34;100022.19;;;18.84;nan
55685;BME280;41883;49.544;8.646;2023-06-14T05:40:59;100024.97;;;18.96;nan
55685;BME280;41883;49.544;8.646;2023-06-14T05:43:24;100035.03;;;19.26;nan
55685;BME280;41883;49.544;8.646;2023-06-14T05:45:50;100037.41;;;19.34;nan
55685;BME280;41883;49.544;8.646;2023-06-14T05:48:15;100044.28;;;19.48;nan
55685;BME280;41883;49.544;8.646;2023-06-14T05:50:40;100045.84;;;19.56;nan
55685;BME280;41883;49.544;8.646;2023-06-14T05:53:05;100034.28;;;19.81;nan
55685;BME280;41883;49.544;8.646;2023-06-14T05:55:30;100052.63;;;20.14;nan
55685;BME280;41883;49.544;8.646;2023-06-14T05:57:55;100057.06;;;20.57;nan
55685;BME280;41883;49.544;8.646;2023-06-14T06:00:21;100059.56;;;20.82;nan
55685;BME280;41883;49.544;8.646;2023-06-14T06:02:46;100064.25;;;20.98;nan
55685;BME280;41883;49.544;8.646;2023-06-14T06:05:12;100211.41;;;21.33;nan
55685;BME280;41883;49.544;8.646;2023-06-14T06:07:38;100202.97;;;21.83;nan
55685;BME280;41883;49.544;8.646;2023-06-14T06:10:05;100204.00;;;21.94;nan
55685;BME280;41883;49.544;8.646;2023-06-14T06:12:30;100208.78;;;22.27;nan
55685;BME280;41883;49.544;8.646;2023-06-14T06:14:56;100202.91;;;22.19;nan
55685;BME280;41883;49.544;8.646;2023-06-14T06:17:21;100210.03;;;22.60;nan
55685;BME280;41883;49.544;8.646;2023-06-14T06:19:46;100208.28;;;22.83;nan
55685;BME280;41883;49.544;8.646;2023-06-14T06:22:11;100215.06;;;22.57;nan
55685;BME280;41883;49.544;8.646;2023-06-14T06:24:37;100228.47;;;22.80;nan
55685;BME280;41883;49.544;8.646;2023-06-14T06:27:02;100223.38;;;22.96;nan
55685;BME280;41883;49.544;8.646;2023-06-14T06:29:27;100228.94;;;23.35;nan
55685;BME280;41883;49.544;8.646;2023-06-14T06:31:52;100234.19;;;23.41;nan
55685;BME280;41883;49.544;8.646;2023-06-14T06:34:17;100225.00;;;23.25;nan
55685;BME280;41883;49.544;8.646;2023-06-14T06:36:43;100228.81;;;22.84;nan
55685;BME280;41883;49.544;8.646;2023-06-14T06:39:08;100222.44;;;22.90;nan
55685;BME280;41883;49.544;8.646;2023-06-14T06:41:35;100229.69;;;23.01;nan
55685;BME280;41883;49.544;8.646;2023-06-14T06:44:02;100234.66;;;23.38;nan
55685;BME280;41883;49.544;8.646;2023-06-14T06:46:27;100227.81;;;23.64;nan
55685;BME280;41883;49.544;8.646;2023-06-14T06:48:52;100228.06;;;23.29;nan
55685;BME280;41883;49.544;8.646;2023-06-14T06:51:18;100227.00;;;23.01;nan
55685;BME280;41883;49.544;8.646;2023-06-14T06:53:43;100241.66;;;23.51;nan
55685;BME280;41883;49.544;8.646;2023-06-14T06:56:16;100237.44;;;23.26;nan
55685;BME280;41883;49.544;8.646;2023-06-14T06:58:41;100238.13;;;23.50;nan
55685;BME280;41883;49.544;8.646;2023-06-14T07:01:07;100246.66;;;23.76;nan
55685;BME280;41883;49.544;8.646;2023-06-14T07:03:34;100250.66;;;23.90;nan
55685;BME280;41883;49.544;8.646;2023-06-14T07:05:59;100250.34;;;24.04;nan
55685;BME280;41883;49.544;8.646;2023-06-14T07:08:24;100251.00;;;23.77;nan
55685;BME280;41883;49.544;8.646;2023-06-14T07:10:49;100249.50;;;24.42;nan
55685;BME280;41883;49.544;8.646;2023-06-14T07:13:14;100261.38;;;24.58;nan
55685;BME280;41883;49.544;8.646;2023-06-14T07:15:40;100261.44;;;24.85;nan
55685;BME280;41883;49.544;8.646;2023-06-14T07:18:05;100262.94;;;25.20;nan
55685;BME280;41883;49.544;8.646;2023-06-14T07:20:31;100262.72;;;25.27;nan
55685;BME280;41883;49.544;8.646;2023-06-14T07:22:58;100264.44;;;25.65;nan
55685;BME280;41883;49.544;8.646;2023-06-14T07:25:23;100267.34;;;25.58;nan
55685;BME280;41883;49.544;8.646;2023-06-14T07:27:48;100265.09;;;25.50;nan
55685;BME280;41883;49.544;8.646;2023-06-14T07:30:13;100265.09;;;25.50;nan
55685;BME280;41883;49.544;8.646;2023-06-14T07:32:39;100270.41;;;25.67;nan
55685;BME280;41883;49.544;8.646;2023-06-14T07:35:05;100269.75;;;25.87;nan
55685;BME280;41883;49.544;8.646;2023-06-14T07:37:30;100268.50;;;26.47;nan
55685;BME280;41883;49.544;8.646;2023-06-14T07:39:56;100285.19;;;26.77;nan
55685;BME280;41883;49.544;8.646;2023-06-14T07:42:21;100283.97;;;27.15;nan
55685;BME280;41883;49.544;8.646;2023-06-14T07:44:46;100279.03;;;26.97;nan
55685;BME280;41883;49.544;8.646;2023-06-14T07:47:12;100289.22;;;27.42;nan
55685;BME280;41883;49.544;8.646;2023-06-14T07:49:37;100290.41;;;26.88;nan
55685;BME280;41883;49.544;8.646;2023-06-14T07:52:03;100288.00;;;27.02;nan
55685;BME280;41883;49.544;8.646;2023-06-14T07:54:29;100289.94;;;27.17;nan
55685;BME280;41883;49.544;8.646;2023-06-14T07:56:55;100279.44;;;27.57;nan
55685;BME280;41883;49.544;8.646;2023-06-14T07:59:21;100282.13;;;27.36;nan
55685;BME280;41883;49.544;8.646;2023-06-14T08:01:46;100290.06;;;28.04;nan
55685;BME280;41883;49.544;8.646;2023-06-14T08:04:13;100289.50;;;28.23;nan
55685;BME280;41883;49.544;8.646;2023-06-14T08:06:38;100279.31;;;28.64;nan
55685;BME280;41883;49.544;8.646;2023-06-14T08:09:04;100289.25;;;27.63;nan
55685;BME280;41883;49.544;8.646;2023-06-14T08:11:30;100285.16;;;27.65;nan
55685;BME280;41883;49.544;8.646;2023-06-14T08:13:55;100297.88;;;28.52;nan
55685;BME280;41883;49.544;8.646;2023-06-14T08:16:21;100288.78;;;28.82;nan
55685;BME280;41883;49.544;8.646;2023-06-14T08:18:46;100289.78;;;29.01;nan
55685;BME280;41883;49.544;8.646;2023-06-14T08:21:11;100303.13;;;29.08;nan
55685;BME280;41883;49.544;8.646;2023-06-14T08:23:38;100288.28;;;29.25;nan
55685;BME280;41883;49.544;8.646;2023-06-14T08:26:04;100307.88;;;29.71;nan
55685;BME280;41883;49.544;8.646;2023-06-14T08:28:29;100303.78;;;29.34;nan
55685;BME280;41883;49.544;8.646;2023-06-14T08:30:55;100305.34;;;29.40;nan
55685;BME280;41883;49.544;8.646;2023-06-14T08:33:20;100305.75;;;29.58;nan
55685;BME280;41883;49.544;8.646;2023-06-14T08:35:45;100291.50;;;29.37;nan
55685;BME280;41883;49.544;8.646;2023-06-14T08:38:11;100304.34;;;29.71;nan
55685;BME280;41883;49.544;8.646;2023-06-14T08:40:37;100306.44;;;30.08;nan
55685;BME280;41883;49.544;8.646;2023-06-14T08:43:03;100306.41;;;30.42;nan
55685;BME280;41883;49.544;8.646;2023-06-14T08:45:29;100307.56;;;30.36;nan
55685;BME280;41883;49.544;8.646;2023-06-14T08:47:54;100307.28;;;30.62;nan
55685;BME280;41883;49.544;8.646;2023-06-14T08:50:25;100305.69;;;30.32;nan
55685;BME280;41883;49.544;8.646;2023-06-14T08:52:57;100308.47;;;30.75;nan
55685;BME280;41883;49.544;8.646;2023-06-14T08:55:26;100303.97;;;30.89;nan
55685;BME280;41883;49.544;8.646;2023-06-14T08:57:54;100310.59;;;30.83;nan
55685;BME280;41883;49.544;8.646;2023-06-14T09:00:20;100309.31;;;31.18;nan
55685;BME280;41883;49.544;8.646;2023-06-14T09:02:47;100312.13;;;30.94;nan
55685;BME280;41883;49.544;8.646;2023-06-14T09:05:13;100300.91;;;31.33;nan
55685;BME280;41883;49.544;8.646;2023-06-14T09:07:39;100312.53;;;31.77;nan
55685;BME280;41883;49.544;8.646;2023-06-14T09:10:09;100316.78;;;31.50;nan
55685;BME280;41883;49.544;8.646;2023-06-14T09:12:35;100320.34;;;32.03;nan
55685;BME280;41883;49.544;8.646;2023-06-14T09:15:02;100323.34;;;31.68;nan
55685;BME280;41883;49.544;8.646;2023-06-14T09:17:32;100323.22;;;32.25;nan
55685;BME280;41883;49.544;8.646;2023-06-14T09:19:58;100322.72;;;32.23;nan
55685;BME280;41883;49.544;8.646;2023-06-14T09:22:23;100317.44;;;32.27;nan
55685;BME280;41883;49.544;8.646;2023-06-14T09:24:49;100324.97;;;32.76;nan
55685;BME280;41883;49.544;8.646;2023-06-14T09:27:15;100322.81;;;33.15;nan
55685;BME280;41883;49.544;8.646;2023-06-14T09:29:41;100336.72;;;32.35;nan
55685;BME280;41883;49.544;8.646;2023-06-14T09:32:06;100328.69;;;31.60;nan
55685;BME280;41883;49.544;8.646;2023-06-14T09:34:33;100334.84;;;32.64;nan
55685;BME280;41883;49.544;8.646;2023-06-14T09:36:58;100327.38;;;33.19;nan
55685;BME280;41883;49.544;8.646;2023-06-14T09:39:23;100317.63;;;33.50;nan
55685;BME280;41883;49.544;8.646;2023-06-14T09:41:50;100321.56;;;34.02;nan
55685;BME280;41883;49.544;8.646;2023-06-14T09:44:15;100331.63;;;34.38;nan
55685;BME280;41883;49.544;8.646;2023-06-14T09:46:43;100330.16;;;33.42;nan
55685;BME280;41883;49.544;8.646;2023-06-14T09:49:09;100321.94;;;33.87;nan
55685;BME280;41883;49.544;8.646;2023-06-14T09:51:41;100320.72;;;33.71;nan
55685;BME280;41883;49.544;8.646;2023-06-14T09:54:08;100326.31;;;33.66;nan
55685;BME280;41883;49.544;8.646;2023-06-14T09:56:37;100330.75;;;33.16;nan
55685;BME280;41883;49.544;8.646;2023-06-14T09:59:06;100327.75;;;33.63;nan
55685;BME280;41883;49.544;8.646;2023-06-14T10:01:35;100322.00;;;34.18;nan
55685;BME280;41883;49.544;8.646;2023-06-14T10:04:04;100321.25;;;34.75;nan
55685;BME280;41883;49.544;8.646;2023-06-14T10:06:30;100319.69;;;34.83;nan
55685;BME280;41883;49.544;8.646;2023-06-14T10:08:59;100324.13;;;35.19;nan
55685;BME280;41883;49.544;8.646;2023-06-14T10:11:26;100327.50;;;35.68;nan
55685;BME280;41883;49.544;8.646;2023-06-14T10:13:51;100320.53;;;35.79;nan
55685;BME280;41883;49.544;8.646;2023-06-14T10:16:22;100325.47;;;36.21;nan
55685;BME280;41883;49.544;8.646;2023-06-14T10:18:53;100325.72;;;35.72;nan
55685;BME280;41883;49.544;8.646;2023-06-14T10:21:32;100313.81;;;34.67;nan
55685;BME280;41883;49.544;8.646;2023-06-14T10:24:01;100326.38;;;35.25;nan
55685;BME280;41883;49.544;8.646;2023-06-14T10:26:28;100316.28;;;36.17;nan
55685;BME280;41883;49.544;8.646;2023-06-14T10:29:07;100327.50;;;35.16;nan
55685;BME280;41883;49.544;8.646;2023-06-14T10:31:45;100323.66;;;34.68;nan
55685;BME280;41883;49.544;8.646;2023-06-14T10:34:11;100325.09;;;35.14;nan
55685;BME280;41883;49.544;8.646;2023-06-14T10:36:41;100328.47;;;35.20;nan
55685;BME280;41883;49.544;8.646;2023-06-14T10:39:08;100317.28;;;36.42;nan
55685;BME280;41883;49.544;8.646;2023-06-14T10:41:37;100324.16;;;36.56;nan
55685;BME280;41883;49.544;8.646;2023-06-14T10:46:38;100325.66;;;33.46;nan
55685;BME280;41883;49.544;8.646;2023-06-14T10:49:03;100319.56;;;33.49;nan
55685;BME280;41883;49.544;8.646;2023-06-14T10:51:29;100318.31;;;34.23;nan
55685;BME280;41883;49.544;8.646;2023-06-14T10:53:56;100308.56;;;35.49;nan
55685;BME280;41883;49.544;8.646;2023-06-14T10:56:31;100316.94;;;34.43;nan
55685;BME280;41883;49.544;8.646;2023-06-14T10:58:57;100316.63;;;35.89;nan
55685;BME280;41883;49.544;8.646;2023-06-14T11:01:36;100315.97;;;35.92;nan
55685;BME280;41883;49.544;8.646;2023-06-14T11:04:09;100316.50;;;37.64;nan
55685;BME280;41883;49.544;8.646;2023-06-14T11:06:59;100303.56;;;38.71;nan
55685;BME280;41883;49.544;8.646;2023-06-14T11:10:00;100318.69;;;38.03;nan
55685;BME280;41883;49.544;8.646;2023-06-14T11:12:31;100294.91;;;38.73;nan
55685;BME280;41883;49.544;8.646;2023-06-14T11:14:57;100297.44;;;40.03;nan
55685;BME280;41883;49.544;8.646;2023-06-14T11:44:04;100311.66;;;32.14;nan
55685;BME280;41883;49.544;8.646;2023-06-14T12:18:31;100292.78;;;31.99;nan
55685;BME280;41883;49.544;8.646;2023-06-14T12:20:59;100297.88;;;31.35;nan
55685;BME280;41883;49.544;8.646;2023-06-14T12:23:49;100298.56;;;30.60;nan
55685;BME280;41883;49.544;8.646;2023-06-14T12:26:17;100301.91;;;29.98;nan
55685;BME280;41883;49.544;8.646;2023-06-14T12:28:44;100296.44;;;30.33;nan
55685;BME280;41883;49.544;8.646;2023-06-14T12:31:14;100297.97;;;30.44;nan
55685;BME280;41883;49.544;8.646;2023-06-14T12:33:40;100297.63;;;31.13;nan
55685;BME280;41883;49.544;8.646;2023-06-14T12:36:10;100287.91;;;30.87;nan
55685;BME280;41883;49.544;8.646;2023-06-14T12:38:36;100295.16;;;31.16;nan
55685;BME280;41883;49.544;8.646;2023-06-14T12:41:01;100293.75;;;31.38;nan
55685;BME280;41883;49.544;8.646;2023-06-14T12:43:27;100298.41;;;31.37;nan
55685;BME280;41883;49.544;8.646;2023-06-14T12:45:53;100291.09;;;30.71;nan
55685;BME280;41883;49.544;8.646;2023-06-14T12:48:19;100291.78;;;30.04;nan
55685;BME280;41883;49.544;8.646;2023-06-14T12:50:45;100298.31;;;29.34;nan
55685;BME280;41883;49.544;8.646;2023-06-14T12:53:10;100300.41;;;29.48;nan
55685;BME280;41883;49.544;8.646;2023-06-14T12:55:36;100290.66;;;29.41;nan
55685;BME280;41883;49.544;8.646;2023-06-14T12:58:01;100296.94;;;29.32;nan
55685;BME280;41883;49.544;8.646;2023-06-14T13:00:26;100303.44;;;30.10;nan
55685;BME280;41883;49.544;8.646;2023-06-14T13:02:52;100298.84;;;30.82;nan
55685;BME280;41883;49.544;8.646;2023-06-14T13:05:17;100309.84;;;30.53;nan
55685;BME280;41883;49.544;8.646;2023-06-14T13:07:43;100312.28;;;30.55;nan
55685;BME280;41883;49.544;8.646;2023-06-14T13:10:09;100306.28;;;30.29;nan
55685;BME280;41883;49.544;8.646;2023-06-14T13:12:35;100300.59;;;30.25;nan
55685;BME280;41883;49.544;8.646;2023-06-14T13:15:00;100305.00;;;29.92;nan
55685;BME280;41883;49.544;8.646;2023-06-14T13:17:26;100296.50;;;29.59;nan
55685;BME280;41883;49.544;8.646;2023-06-14T13:19:51;100301.69;;;29.60;nan
55685;BME280;41883;49.544;8.646;2023-06-14T13:22:16;100307.34;;;29.25;nan
55685;BME280;41883;49.544;8.646;2023-06-14T13:24:42;100309.72;;;28.87;nan
55685;BME280;41883;49.544;8.646;2023-06-14T13:27:07;100304.47;;;29.00;nan
55685;BME280;41883;49.544;8.646;2023-06-14T13:29:33;100300.72;;;28.91;nan
55685;BME280;41883;49.544;8.646;2023-06-14T13:32:00;100298.97;;;28.35;nan
55685;BME280;41883;49.544;8.646;2023-06-14T13:34:26;100299.78;;;28.51;nan
55685;BME280;41883;49.544;8.646;2023-06-14T13:36:51;100297.59;;;28.58;nan
55685;BME280;41883;49.544;8.646;2023-06-14T13:39:16;100307.34;;;28.65;nan
55685;BME280;41883;49.544;8.646;2023-06-14T13:41:41;100306.25;;;28.66;nan
55685;BME280;41883;49.544;8.646;2023-06-14T13:44:07;100307.59;;;28.68;nan
55685;BME280;41883;49.544;8.646;2023-06-14T13:46:32;100310.03;;;28.70;nan
55685;BME280;41883;49.544;8.646;2023-06-14T13:48:57;100308.56;;;28.98;nan
55685;BME280;41883;49.544;8.646;2023-06-14T13:51:23;100313.81;;;28.79;nan
55685;BME280;41883;49.544;8.646;2023-06-14T13:53:49;100303.53;;;28.66;nan
55685;BME280;41883;49.544;8.646;2023-06-14T13:56:16;100300.31;;;28.43;nan
55685;BME280;41883;49.544;8.646;2023-06-14T13:58:41;100297.94;;;28.11;nan
55685;BME280;41883;49.544;8.646;2023-06-14T14:01:08;100295.16;;;28.42;nan
55685;BME280;41883;49.544;8.646;2023-06-14T14:03:33;100294.13;;;28.97;nan
55685;BME280;41883;49.544;8.646;2023-06-14T14:06:00;100296.56;;;29.54;nan
55685;BME280;41883;49.544;8.646;2023-06-14T14:08:26;100305.44;;;29.30;nan
55685;BME280;41883;49.544;8.646;2023-06-14T14:10:51;100302.53;;;29.06;nan
55685;BME280;41883;49.544;8.646;2023-06-14T14:13:17;100308.69;;;28.72;nan
55685;BME280;41883;49.544;8.646;2023-06-14T14:15:42;100299.16;;;28.75;nan
55685;BME280;41883;49.544;8.646;2023-06-14T14:18:08;100297.81;;;28.67;nan
55685;BME280;41883;49.544;8.646;2023-06-14T14:20:37;100300.03;;;28.55;nan
55685;BME280;41883;49.544;8.646;2023-06-14T14:23:02;100306.25;;;28.66;nan
55685;BME280;41883;49.544;8.646;2023-06-14T14:25:27;100305.81;;;28.17;nan
55685;BME280;41883;49.544;8.646;2023-06-14T14:27:53;100296.84;;;28.02;nan
55685;BME280;41883;49.544;8.646;2023-06-14T14:30:18;100299.28;;;27.52;nan
55685;BME280;41883;49.544;8.646;2023-06-14T14:32:48;100299.84;;;27.90;nan
55685;BME280;41883;49.544;8.646;2023-06-14T14:35:16;100294.41;;;27.74;nan